createdAt,value
2019-04-07T07:59:38.414Z,98718.62
2019-04-07T08:04:41.262Z,98716.30
2019-04-07T08:09:45.329Z,98725.75
2019-04-07T08:14:52.350Z,98723.25
2019-04-07T08:19:55.631Z,98723.95
2019-04-07T08:24:59.985Z,98713.25
2019-04-07T08:30:10.174Z,98716.27
2019-04-07T08:35:11.847Z,98714.11
2019-04-07T08:40:16.358Z,98704.20
2019-04-07T08:45:21.152Z,98721.09
2019-04-07T08:50:27.657Z,98720.74
2019-04-07T08:55:31.930Z,98720.03
2019-04-07T09:00:36.075Z,98717.88
2019-04-07T09:05:40.987Z,98722.89
2019-04-07T09:10:45.207Z,98718.28
2019-04-07T09:15:49.937Z,98709.91
2019-04-07T09:20:54.064Z,98712.75
2019-04-07T09:25:58.360Z,98743.87
2019-04-07T09:31:04.246Z,98715.12
2019-04-07T09:36:12.177Z,98724.75
2019-04-07T09:41:19.162Z,98720.72
2019-04-07T09:46:22.884Z,98720.87
2019-04-07T09:51:27.214Z,98724.25
2019-04-07T09:56:32.966Z,98732.02
2019-04-07T10:01:36.988Z,98729.72
2019-04-07T10:06:40.969Z,98737.38
2019-04-07T10:11:45.085Z,98741.17
2019-04-07T10:16:49.536Z,98744.45
2019-04-07T10:21:53.688Z,98747.07
2019-04-07T10:26:57.724Z,98753.96
2019-04-07T10:32:02.410Z,98754.17
2019-04-07T10:37:08.124Z,98752.25
2019-04-07T10:42:12.510Z,98761.27
2019-04-07T10:47:17.130Z,98758.17
2019-04-07T10:52:21.486Z,98769.08
2019-04-07T10:57:25.529Z,98769.26
2019-04-07T11:02:29.573Z,98776.56
2019-04-07T11:07:33.872Z,98782.78
2019-04-07T11:12:37.945Z,98782.49
2019-04-07T11:17:43.679Z,98794.98
2019-04-07T11:22:47.807Z,98792.46
2019-04-07T11:27:52.662Z,98780.64
2019-04-07T11:32:57.573Z,98784.63
2019-04-07T11:38:02.779Z,98784.81
2019-04-07T11:43:07.180Z,98778.18
2019-04-07T11:48:12.089Z,98791.66
2019-04-07T11:53:16.701Z,98797.89
2019-04-07T11:58:28.827Z,98804.94
2019-04-07T12:03:27.982Z,98809.26
2019-04-07T12:08:35.919Z,98821.53
2019-04-07T12:13:38.641Z,98815.75
2019-04-07T12:18:44.099Z,98819.98
2019-04-07T12:23:52.065Z,98812.80
2019-04-07T12:28:54.644Z,98820.55
2019-04-07T12:33:59.505Z,98817.17
2019-04-07T12:39:07.221Z,98819.68
2019-04-07T12:44:11.563Z,98828.92
2019-04-07T12:49:16.425Z,98821.95
2019-04-07T12:54:22.117Z,98810.40
2019-04-07T12:59:27.254Z,98814.03
2019-04-07T13:04:31.856Z,98825.95
2019-04-07T13:14:43.990Z,98819.77
2019-04-07T13:19:50.179Z,98827.13
2019-04-07T13:24:54.798Z,98824.95
2019-04-07T13:29:59.702Z,98830.16
2019-04-07T13:35:05.649Z,98828.19
2019-04-07T13:40:13.112Z,98830.25
2019-04-07T13:45:17.852Z,98815.03
2019-04-07T13:50:22.489Z,98824.38
2019-04-07T13:55:27.337Z,98829.52
2019-04-07T14:00:31.689Z,98832.72
2019-04-07T14:05:38.955Z,98843.42
2019-04-07T14:10:41.498Z,98839.44
2019-04-07T14:15:46.418Z,98838.66
2019-04-07T14:20:50.778Z,98831.30
2019-04-07T14:25:54.961Z,98834.02
2019-04-07T14:30:58.951Z,98830.71
2019-04-07T14:36:03.019Z,98833.95
2019-04-07T14:41:09.677Z,98846.01
2019-04-07T14:46:13.664Z,98848.81
2019-04-07T14:51:17.705Z,98847.78
2019-04-07T14:56:21.976Z,98845.70
2019-04-07T15:01:26.063Z,98829.77
2019-04-07T15:06:33.271Z,98848.58
2019-04-07T15:11:36.824Z,98848.30
2019-04-07T15:16:40.863Z,98853.67
2019-04-07T15:21:46.350Z,98850.37
2019-04-07T15:26:50.743Z,98856.00
2019-04-07T15:31:54.863Z,98861.38
2019-04-07T15:36:59.118Z,98861.16
2019-04-07T15:42:05.225Z,98864.13
2019-04-07T15:47:09.505Z,98897.78
2019-04-07T15:52:13.593Z,98859.48
2019-04-07T15:57:20.258Z,98885.98
2019-04-07T16:02:23.577Z,98877.98
2019-04-07T16:07:28.384Z,98882.73
2019-04-07T16:12:44.089Z,98888.35
2019-04-07T16:17:40.449Z,98894.31
2019-04-07T16:22:47.013Z,98892.45
2019-04-07T16:27:51.104Z,98903.45
2019-04-07T16:33:00.620Z,98907.27
2019-04-07T16:38:01.773Z,98906.78
2019-04-07T16:43:13.291Z,98899.66
2019-04-07T16:48:14.060Z,98896.40
2019-04-07T16:53:18.433Z,98905.95
2019-04-07T16:58:22.802Z,98909.64
2019-04-07T17:03:27.534Z,98912.81
2019-04-07T17:08:31.846Z,98920.05
2019-04-07T17:13:41.218Z,98924.83
2019-04-07T17:18:43.081Z,98918.53
2019-04-07T17:23:47.641Z,98932.28
2019-04-07T17:28:52.658Z,98940.05
2019-04-07T17:33:57.003Z,98932.50
2019-04-07T17:39:04.044Z,98940.80
2019-04-07T17:44:07.023Z,98937.50
2019-04-07T17:49:14.708Z,98942.27
2019-04-07T17:54:21.409Z,98943.17
2019-04-07T17:59:24.782Z,98954.94
2019-04-07T18:04:28.823Z,98949.97
2019-04-07T18:09:33.058Z,98951.93
2019-04-07T18:14:37.393Z,98961.68
2019-04-07T18:19:41.537Z,98962.78
2019-04-07T18:26:45.483Z,98949.75
2019-04-07T18:31:50.927Z,98949.75
2019-04-07T18:36:55.392Z,98961.66
2019-04-07T18:42:02.014Z,98964.33
2019-04-07T18:47:05.223Z,98958.84
2019-04-07T18:52:11.112Z,98962.00
2019-04-07T18:57:15.349Z,98975.11
2019-04-07T19:02:19.447Z,98983.20
2019-04-07T19:07:24.526Z,98976.75
2019-04-07T19:12:31.830Z,98990.20
2019-04-07T19:17:36.384Z,98981.37
2019-04-07T19:22:40.679Z,98975.02
2019-04-07T19:27:44.855Z,98980.09
2019-04-07T19:32:52.642Z,98986.16
2019-04-07T19:37:54.564Z,98981.52
2019-04-07T19:43:01.724Z,98993.48
2019-04-07T19:48:08.749Z,98993.80
2019-04-07T19:53:14.053Z,98997.11
2019-04-07T19:58:17.705Z,99006.98
2019-04-07T20:03:22.131Z,98991.58
2019-04-07T20:08:32.427Z,98999.08
2019-04-07T20:13:39.465Z,98999.34
2019-04-07T20:18:41.660Z,98998.73
2019-04-07T20:23:45.954Z,98997.11
2019-04-07T20:28:52.077Z,98990.55
2019-04-07T20:33:56.895Z,99000.58
2019-04-07T20:39:01.854Z,98996.61
2019-04-07T20:44:06.218Z,98997.17
2019-04-07T20:49:12.039Z,98999.27
2019-04-07T20:54:16.062Z,99000.58
2019-04-07T20:59:20.478Z,98997.08
2019-04-07T21:04:25.728Z,99007.20
2019-04-07T21:09:33.333Z,99000.73
2019-04-07T21:14:37.009Z,99008.56
2019-04-07T21:19:41.152Z,99014.06
2019-04-07T21:24:50.551Z,99015.89
2019-04-07T21:29:52.528Z,99013.77
2019-04-07T21:35:00.354Z,99012.55
2019-04-07T21:40:04.364Z,99003.37
2019-04-07T21:45:08.577Z,99002.00
2019-04-07T21:50:15.147Z,99004.32
2019-04-07T21:55:19.157Z,99007.63
2019-04-07T22:00:24.364Z,99001.67
2019-04-07T22:05:28.647Z,98995.78
2019-04-07T22:10:32.777Z,98992.55
2019-04-07T22:15:45.868Z,98993.31
2019-04-07T22:20:43.241Z,98996.77
2019-04-07T22:25:51.222Z,98997.44
2019-04-07T22:30:55.300Z,99001.52
2019-04-07T22:35:59.694Z,98996.61
2019-04-07T22:41:06.756Z,98991.31
2019-04-07T22:46:17.582Z,99000.05
2019-04-07T22:51:15.633Z,98999.05
2019-04-07T22:56:20.356Z,98997.99
2019-04-07T23:01:27.125Z,99007.20
2019-04-07T23:06:31.204Z,99000.41
2019-04-07T23:11:35.545Z,99001.38
2019-04-07T23:16:40.136Z,98998.49
2019-04-07T23:21:44.284Z,98996.28
2019-04-07T23:26:48.858Z,98995.55
2019-04-07T23:31:53.498Z,98996.98
2019-04-07T23:36:57.729Z,99000.38
2019-04-07T23:42:01.720Z,98994.66
2019-04-07T23:47:06.867Z,98994.64
2019-04-07T23:52:11.124Z,98994.11
2019-04-07T23:57:15.559Z,98991.52
